ROMMA est une association bénévole à but non lucratif. Votre soutien est indispensable : ADHERER à ROMMA ou FAIRE un DON

Granges-lès-Beaumont - (26, Drôme)

Drôme des Collines (155 m)   Longitude: 04°58'E   Latitude: 45°03'N Station partenaire n°123
 

Détail journalier du     <<     >>

Température Precipitation Humidité Pression Vent Dir Rafale Dir. rafale Ensol.
Heure (°C) (mm) (%) (hPa) (km/h) (km/h) (min)
01:00 5.5075101812N26NNO0
02:00 5.2077101814NNO26N0
03:00 4.9080101813N31NO0
04:00 4.5081101812NNO26NNO0
05:00 4.4083101913N29NNO0
06:00 4.1084101813N26NNE0
07:00 4.0085101913N27NNO0
08:00 4.8082101919NNO35N0
09:00 6.2078101920N35NNE0
10:00 8.9068101916NNO29N40
11:00 11.3058101917NNO37NO60
12:00 12.2048101921NNO42N50
13:00 14.4044101921N40NNE50
14:00 14.6046101920NNO40NE50
15:00 14.3043101920NNO39NNO10
16:00 14.8045101919NNO39NNO20
17:00 15.8045101818NNO35NNE30
18:00 14.9044101819N34NNE40
19:00 14.4044101817NNO34NNE60
20:00 13.1047101815NNO29NO40
21:00 11.2053101912N26NNO10
22:00 9.505810199N18NNE0
23:00 8.306310199NNO18NNE0
minuit 7.0068101910NNO18NNO0

Graphique du 06-05-2019

 

Serveur OMMA